Weather at Lachute Airport

Public forecast

Using degrees Celsius for public forecast. Weather courtesy of forecast.io.

Closest aviation weather report (METAR) to Lachute Airport

Closest report is Montreal International (Mirabel) Airport, 14.1 nm (26.2 km) E.

2024/05/21 12:00 (retrieved 60 minutes ago)

CYMX 211200Z 24005KT 210V290 30SM FEW140 BKN250 19/13 A2986 RMK AC1CI6 SLP115 DENSITY ALT 900FT

Closest aviation forecast (TAF) to Lachute Airport

Closest forecast is Montreal International (Mirabel) Airport, 14.1 nm (26.2 km) E.

2024/05/21 12:45 (retrieved 15 minutes ago)

TAF CYMX 211141Z 2112/2212 VRB03KT P6SM BKN230 FM211500 25012G22KT P6SM BKN150 FM211800 23010KT P6SM -SHRA BKN070 PROB30 2119/2206 VRB20G30KT 2SM TSRA BR BKN020 OVC040CB FM220600 23007KT P6SM BKN050 RMK NXT FCST BY 211800Z